createdAt,value
2017-06-20T00:00:01.543Z,54.00
2017-06-20T00:02:27.853Z,54.00
2017-06-20T00:04:54.200Z,53.90
2017-06-20T00:07:20.512Z,53.90
2017-06-20T00:09:46.855Z,53.90
2017-06-20T00:12:13.187Z,54.00
2017-06-20T00:14:39.503Z,53.90
2017-06-20T00:17:05.839Z,53.90
2017-06-20T00:19:32.181Z,53.90
2017-06-20T00:21:58.523Z,54.00
2017-06-20T00:24:24.833Z,54.00
2017-06-20T00:26:51.165Z,54.10
2017-06-20T00:29:17.498Z,54.20
2017-06-20T00:31:43.837Z,54.20
2017-06-20T00:34:10.153Z,54.40
2017-06-20T00:36:36.504Z,54.40
2017-06-20T00:39:02.899Z,54.30
2017-06-20T00:41:29.224Z,54.00
2017-06-20T00:43:56.294Z,54.40
2017-06-20T00:46:22.625Z,54.40
2017-06-20T00:48:49.013Z,54.60
2017-06-20T00:51:15.340Z,54.60
2017-06-20T00:53:41.651Z,54.60
2017-06-20T00:56:07.984Z,54.70
2017-06-20T00:58:34.319Z,54.60
2017-06-20T01:01:00.631Z,54.50
2017-06-20T01:03:27.709Z,54.70
2017-06-20T01:05:54.013Z,54.70
2017-06-20T01:08:21.086Z,54.90
2017-06-20T01:10:47.409Z,54.90
2017-06-20T01:13:13.740Z,54.80
2017-06-20T01:15:40.056Z,54.60
2017-06-20T01:18:07.152Z,54.80
2017-06-20T01:20:33.466Z,54.80
2017-06-20T01:22:59.815Z,54.90
2017-06-20T01:25:26.130Z,54.90
2017-06-20T01:27:52.458Z,54.90
2017-06-20T01:30:18.843Z,55.00
2017-06-20T01:32:45.925Z,55.10
2017-06-20T01:35:12.263Z,55.10
2017-06-20T01:37:38.578Z,55.00
2017-06-20T01:40:04.924Z,54.90
2017-06-20T01:42:31.269Z,54.80
2017-06-20T01:44:57.628Z,55.00
2017-06-20T01:47:23.947Z,55.20
2017-06-20T01:49:50.311Z,55.30
2017-06-20T01:52:17.405Z,55.30
2017-06-20T01:54:43.739Z,55.30
2017-06-20T01:57:10.097Z,55.40
2017-06-20T01:59:36.500Z,55.30
2017-06-20T02:02:02.868Z,55.30
2017-06-20T02:04:29.212Z,55.30
2017-06-20T02:06:55.564Z,55.40
2017-06-20T02:09:21.880Z,55.50
2017-06-20T02:11:48.997Z,55.50
2017-06-20T02:14:15.336Z,55.50
2017-06-20T02:16:41.709Z,55.40
2017-06-20T02:19:08.077Z,55.50
2017-06-20T02:21:34.421Z,55.70
2017-06-20T02:24:00.748Z,55.70
2017-06-20T02:26:27.095Z,55.70
2017-06-20T02:28:53.442Z,55.70
2017-06-20T02:31:20.568Z,55.60
2017-06-20T02:33:46.912Z,55.60
2017-06-20T02:36:13.226Z,55.60
2017-06-20T02:38:39.558Z,55.50
2017-06-20T02:41:05.881Z,55.40
2017-06-20T02:43:32.239Z,55.40
2017-06-20T02:45:58.548Z,55.50
2017-06-20T02:48:24.916Z,55.80
2017-06-20T02:50:51.959Z,55.50
2017-06-20T02:53:19.028Z,55.50
2017-06-20T02:55:45.336Z,55.40
2017-06-20T02:58:12.415Z,55.50
2017-06-20T03:00:38.740Z,55.50
2017-06-20T03:03:05.072Z,55.60
2017-06-20T03:05:31.378Z,55.80
2017-06-20T03:07:58.420Z,55.80
2017-06-20T03:10:25.666Z,56.40
2017-06-20T03:12:51.971Z,55.80
2017-06-20T03:15:18.316Z,55.60
2017-06-20T03:17:44.656Z,55.80
2017-06-20T03:20:18.077Z,56.00
2017-06-20T03:22:44.393Z,56.00
2017-06-20T03:25:11.482Z,55.70
2017-06-20T03:27:37.800Z,55.70
2017-06-20T03:30:04.144Z,55.80
2017-06-20T03:32:30.465Z,55.70
2017-06-20T03:34:56.788Z,55.70
2017-06-20T03:37:23.124Z,55.70
2017-06-20T03:39:49.435Z,55.70
2017-06-20T03:42:23.391Z,55.80
2017-06-20T03:44:49.716Z,55.80
2017-06-20T03:47:16.089Z,56.00
2017-06-20T03:49:42.409Z,55.90
2017-06-20T03:52:08.749Z,55.90
2017-06-20T03:54:35.061Z,56.10
2017-06-20T03:57:01.409Z,56.00
2017-06-20T03:59:27.723Z,55.90
2017-06-20T04:01:54.018Z,56.00
2017-06-20T04:04:20.350Z,56.10
2017-06-20T04:06:46.672Z,56.10
2017-06-20T04:09:13.011Z,56.40
2017-06-20T04:11:39.327Z,56.40
2017-06-20T04:14:05.659Z,56.50
2017-06-20T04:16:31.975Z,56.60
2017-06-20T04:18:59.084Z,56.50
2017-06-20T04:21:31.434Z,56.50
2017-06-20T04:24:12.678Z,56.40
2017-06-20T04:26:39.737Z,56.50
2017-06-20T04:29:06.055Z,56.40
2017-06-20T04:31:33.105Z,56.60
2017-06-20T04:34:00.184Z,56.90
2017-06-20T04:36:26.507Z,56.90
2017-06-20T04:38:52.824Z,56.70
2017-06-20T04:41:19.164Z,56.90
2017-06-20T04:43:45.473Z,56.80
2017-06-20T04:46:12.541Z,56.80
2017-06-20T04:48:38.848Z,56.80
2017-06-20T04:51:05.911Z,57.00
2017-06-20T04:53:32.222Z,56.90
2017-06-20T04:55:59.289Z,57.10
2017-06-20T04:58:25.612Z,57.00
2017-06-20T05:00:51.950Z,57.00
2017-06-20T05:03:18.277Z,57.10
2017-06-20T05:05:44.615Z,57.30
2017-06-20T05:08:10.948Z,57.30
2017-06-20T05:10:37.252Z,57.50
2017-06-20T05:13:04.322Z,58.00
2017-06-20T05:15:30.649Z,57.90
2017-06-20T05:17:57.224Z,58.00
2017-06-20T05:20:23.580Z,57.50
2017-06-20T05:22:50.030Z,57.50
2017-06-20T05:25:17.099Z,57.50
2017-06-20T05:27:43.504Z,57.40
2017-06-20T05:30:10.705Z,58.10
2017-06-20T05:32:37.104Z,57.70
2017-06-20T05:35:03.528Z,58.00
2017-06-20T05:37:30.612Z,57.60
2017-06-20T05:39:56.969Z,57.50
2017-06-20T05:42:23.288Z,57.40
2017-06-20T05:44:49.659Z,57.50
2017-06-20T05:47:15.978Z,57.40
2017-06-20T05:49:42.301Z,57.30
2017-06-20T05:52:08.646Z,57.80
2017-06-20T05:54:34.977Z,57.90
2017-06-20T05:57:01.328Z,57.40
2017-06-20T05:59:28.391Z,56.90
2017-06-20T06:01:54.745Z,56.90
2017-06-20T06:04:21.068Z,56.60
2017-06-20T06:06:47.631Z,56.50
2017-06-20T06:09:13.943Z,56.80
2017-06-20T06:11:40.264Z,56.50
2017-06-20T06:14:06.614Z,56.40
2017-06-20T06:16:32.936Z,57.00
2017-06-20T06:18:59.297Z,57.10
2017-06-20T06:21:25.618Z,57.10
2017-06-20T06:23:51.964Z,57.70
2017-06-20T06:26:18.289Z,57.90
2017-06-20T06:28:44.624Z,58.00
2017-06-20T06:31:10.954Z,58.00
2017-06-20T06:33:37.327Z,58.80
2017-06-20T06:36:03.689Z,59.00
2017-06-20T06:38:30.006Z,58.20
2017-06-20T06:40:56.351Z,58.40
2017-06-20T06:43:22.670Z,58.40
2017-06-20T06:45:49.110Z,58.60
2017-06-20T06:48:15.427Z,58.90
2017-06-20T06:50:41.944Z,58.50
2017-06-20T06:55:48.798Z,58.10
2017-06-20T06:58:15.113Z,58.50
2017-06-20T07:00:41.804Z,58.00
2017-06-20T07:03:08.164Z,57.80
2017-06-20T07:05:34.516Z,57.90
2017-06-20T07:08:00.838Z,57.90
2017-06-20T07:10:27.197Z,58.30
2017-06-20T07:12:53.542Z,57.90
2017-06-20T07:15:19.855Z,58.00
2017-06-20T07:17:46.220Z,57.50
2017-06-20T07:20:13.292Z,58.40
2017-06-20T07:22:39.697Z,58.10
2017-06-20T07:25:06.037Z,57.40
2017-06-20T07:27:32.382Z,56.70
2017-06-20T07:29:58.701Z,56.60
2017-06-20T07:32:25.066Z,56.60
2017-06-20T07:34:51.388Z,57.10
2017-06-20T07:37:18.074Z,56.70
2017-06-20T07:39:45.187Z,56.40
2017-06-20T07:42:11.528Z,56.40
2017-06-20T07:44:37.914Z,55.20
2017-06-20T07:47:04.238Z,54.70
2017-06-20T07:49:30.584Z,54.90
2017-06-20T07:51:56.896Z,54.20
2017-06-20T07:54:23.241Z,54.20
2017-06-20T07:56:49.557Z,56.00
2017-06-20T07:59:15.881Z,55.60
2017-06-20T08:01:42.196Z,55.00
2017-06-20T08:04:09.289Z,54.40
2017-06-20T08:06:35.645Z,54.30
2017-06-20T08:09:01.967Z,52.10
2017-06-20T08:11:28.300Z,52.00
2017-06-20T08:13:54.617Z,52.90
2017-06-20T08:16:20.966Z,52.40
2017-06-20T08:18:47.315Z,51.80
2017-06-20T08:21:19.645Z,51.30
2017-06-20T08:23:45.971Z,51.40
2017-06-20T08:26:12.315Z,49.50
2017-06-20T08:28:38.632Z,48.90
2017-06-20T08:31:04.950Z,48.40
2017-06-20T08:33:31.289Z,47.70
2017-06-20T08:36:03.784Z,48.80
2017-06-20T08:38:30.133Z,48.40
2017-06-20T08:40:56.444Z,47.30
2017-06-20T08:43:22.797Z,48.50
2017-06-20T08:45:49.109Z,47.20
2017-06-20T08:48:15.485Z,48.20
2017-06-20T08:50:42.564Z,48.10
2017-06-20T08:53:08.928Z,48.00
2017-06-20T08:55:35.263Z,48.10
2017-06-20T08:58:01.613Z,49.30
2017-06-20T09:00:27.927Z,49.50
2017-06-20T09:02:54.244Z,49.90
2017-06-20T09:05:20.588Z,47.70
2017-06-20T09:07:46.904Z,47.70
2017-06-20T09:10:13.248Z,46.80
2017-06-20T09:12:39.574Z,46.00
2017-06-20T09:15:05.916Z,45.60
2017-06-20T09:17:32.252Z,46.10
2017-06-20T09:19:58.624Z,45.40
2017-06-20T09:22:24.941Z,46.00
2017-06-20T09:24:52.023Z,46.30
2017-06-20T09:27:18.346Z,46.20
2017-06-20T09:29:44.697Z,46.70
2017-06-20T09:32:11.020Z,46.90
2017-06-20T09:34:37.354Z,45.50
2017-06-20T09:37:03.691Z,45.40
2017-06-20T09:39:30.004Z,45.60
2017-06-20T09:41:56.343Z,46.40
2017-06-20T09:44:22.697Z,46.30
2017-06-20T09:46:49.045Z,45.90
2017-06-20T09:49:15.385Z,45.60
2017-06-20T09:51:42.486Z,47.30
2017-06-20T09:54:08.813Z,47.30
2017-06-20T09:56:35.165Z,45.80
2017-06-20T09:59:01.494Z,46.80
2017-06-20T10:01:27.849Z,46.00
2017-06-20T10:03:54.193Z,44.80
2017-06-20T10:06:21.277Z,46.40
2017-06-20T10:08:47.644Z,46.40
2017-06-20T10:11:14.084Z,45.30
2017-06-20T10:13:40.456Z,44.50
2017-06-20T10:16:06.799Z,44.80
2017-06-20T10:18:33.173Z,44.80
2017-06-20T10:20:59.505Z,44.80
2017-06-20T10:23:25.856Z,43.80
2017-06-20T10:25:52.918Z,45.00
2017-06-20T10:28:20.021Z,45.80
2017-06-20T10:30:46.377Z,45.70
2017-06-20T10:33:13.454Z,44.40
2017-06-20T10:35:39.820Z,44.30
2017-06-20T10:38:06.138Z,43.60
2017-06-20T10:40:32.482Z,43.60
2017-06-20T10:42:58.817Z,43.90
2017-06-20T10:45:25.161Z,44.90
2017-06-20T10:47:51.485Z,45.40
2017-06-20T10:50:17.845Z,44.80
2017-06-20T10:52:44.925Z,44.80
2017-06-20T10:55:11.282Z,44.70
2017-06-20T10:57:37.620Z,44.50
2017-06-20T11:00:03.942Z,44.60
2017-06-20T11:02:30.284Z,45.70
2017-06-20T11:04:56.612Z,45.50
2017-06-20T11:07:22.959Z,45.20
2017-06-20T11:09:49.289Z,45.40
2017-06-20T11:12:15.649Z,45.30
2017-06-20T11:14:42.711Z,45.00
2017-06-20T11:17:09.065Z,45.00
2017-06-20T11:19:35.401Z,46.30
2017-06-20T11:22:01.727Z,44.60
2017-06-20T11:24:28.068Z,44.00
2017-06-20T11:26:54.397Z,46.90
2017-06-20T11:29:20.776Z,46.90
2017-06-20T11:31:47.832Z,46.00
2017-06-20T11:34:14.172Z,45.80
2017-06-20T11:36:40.959Z,45.20
2017-06-20T11:39:07.306Z,46.50
2017-06-20T11:41:34.367Z,45.10
2017-06-20T11:44:00.693Z,45.10
2017-06-20T11:46:27.037Z,44.20
2017-06-20T11:48:53.372Z,47.00
2017-06-20T11:51:19.710Z,44.90
2017-06-20T11:53:46.061Z,44.60
2017-06-20T11:56:12.396Z,43.70
2017-06-20T11:58:38.722Z,44.30
2017-06-20T12:01:05.061Z,43.40
2017-06-20T12:03:31.383Z,44.80
2017-06-20T12:05:57.701Z,44.70
2017-06-20T12:08:24.778Z,45.40
2017-06-20T12:10:51.089Z,45.40
2017-06-20T12:13:17.428Z,45.70
2017-06-20T12:15:43.751Z,44.80
2017-06-20T12:18:10.123Z,45.10
2017-06-20T12:20:36.436Z,44.30
2017-06-20T12:23:03.520Z,44.20
2017-06-20T12:25:29.837Z,44.00
2017-06-20T12:27:56.184Z,44.80
2017-06-20T12:30:22.508Z,45.60
2017-06-20T12:32:48.829Z,44.30
2017-06-20T12:35:15.173Z,44.50
2017-06-20T12:37:41.791Z,44.20
2017-06-20T12:40:08.428Z,43.70
2017-06-20T12:42:35.039Z,43.60
2017-06-20T12:45:01.778Z,44.50
2017-06-20T12:47:28.723Z,44.80
2017-06-20T12:49:55.363Z,44.80
2017-06-20T12:52:21.867Z,44.80
2017-06-20T12:54:48.430Z,44.70
2017-06-20T12:57:14.893Z,46.20
2017-06-20T12:59:41.331Z,45.80
2017-06-20T13:02:07.783Z,45.00
2017-06-20T13:04:34.972Z,45.70
2017-06-20T13:07:01.414Z,45.60
2017-06-20T13:09:27.853Z,46.30
2017-06-20T13:11:54.225Z,46.60
2017-06-20T13:14:20.550Z,46.70
2017-06-20T13:16:46.900Z,45.10
2017-06-20T13:19:13.967Z,44.90
2017-06-20T13:21:40.293Z,44.90
2017-06-20T13:24:07.388Z,45.40
2017-06-20T13:26:33.709Z,45.30
2017-06-20T13:29:00.047Z,45.80
2017-06-20T13:31:26.368Z,45.60
2017-06-20T13:33:52.714Z,46.10
2017-06-20T13:36:19.033Z,45.30
2017-06-20T13:38:45.360Z,45.00
2017-06-20T13:41:11.674Z,45.30
2017-06-20T13:43:38.007Z,46.10
2017-06-20T13:46:04.324Z,46.10
2017-06-20T13:48:30.674Z,46.90
2017-06-20T13:50:56.984Z,45.50
2017-06-20T13:53:23.296Z,46.50
2017-06-20T13:55:50.385Z,43.10
2017-06-20T13:58:16.718Z,43.00
2017-06-20T14:00:43.076Z,44.40
2017-06-20T14:03:09.406Z,44.90
2017-06-20T14:05:35.745Z,43.70
2017-06-20T14:08:02.070Z,43.10
2017-06-20T14:10:28.396Z,42.90
2017-06-20T14:12:54.707Z,42.00
2017-06-20T14:15:21.043Z,41.60
2017-06-20T14:17:47.378Z,40.30
2017-06-20T14:20:13.697Z,40.00
2017-06-20T14:22:40.039Z,41.70
2017-06-20T14:25:06.361Z,40.90
2017-06-20T14:27:32.947Z,40.70
2017-06-20T14:30:00.035Z,39.30
2017-06-20T14:32:26.811Z,39.30
2017-06-20T14:34:53.115Z,40.50
2017-06-20T14:37:19.461Z,40.30
2017-06-20T14:39:45.783Z,40.40
2017-06-20T14:42:12.123Z,40.00
2017-06-20T14:44:38.438Z,39.50
2017-06-20T14:47:04.751Z,40.30
2017-06-20T14:49:31.081Z,40.00
2017-06-20T14:51:57.404Z,40.50
2017-06-20T14:54:23.738Z,41.40
2017-06-20T14:56:50.056Z,40.00
2017-06-20T14:59:16.403Z,40.90
2017-06-20T15:01:42.821Z,40.50
2017-06-20T15:04:09.188Z,40.00
2017-06-20T15:06:35.495Z,42.10
2017-06-20T15:09:01.857Z,41.40
2017-06-20T15:11:28.170Z,42.00
2017-06-20T15:13:54.525Z,40.80
2017-06-20T15:16:20.847Z,41.40
2017-06-20T15:18:47.232Z,42.10
2017-06-20T15:21:14.290Z,40.20
2017-06-20T15:23:40.590Z,40.20
2017-06-20T15:26:06.927Z,39.00
2017-06-20T15:28:33.972Z,39.30
2017-06-20T15:31:01.054Z,39.30
2017-06-20T15:33:27.353Z,39.30
2017-06-20T15:35:54.431Z,40.90
2017-06-20T15:38:20.735Z,40.90
2017-06-20T15:40:47.806Z,39.90
2017-06-20T15:43:14.125Z,39.80
2017-06-20T15:45:41.195Z,39.30
2017-06-20T15:48:07.500Z,39.30
2017-06-20T15:50:34.561Z,38.10
2017-06-20T15:53:00.864Z,38.00
2017-06-20T15:55:27.972Z,38.80
2017-06-20T15:57:54.284Z,38.80
2017-06-20T16:00:20.586Z,38.10
2017-06-20T16:02:47.722Z,38.70
2017-06-20T16:05:14.824Z,39.10
2017-06-20T16:07:41.132Z,38.60
2017-06-20T16:10:07.479Z,36.50
2017-06-20T16:12:33.847Z,36.70
2017-06-20T16:15:00.181Z,37.80
2017-06-20T16:17:26.512Z,37.90
2017-06-20T16:19:52.838Z,38.10
2017-06-20T16:22:19.198Z,39.00
2017-06-20T16:24:46.259Z,38.40
2017-06-20T16:27:12.578Z,38.30
2017-06-20T16:29:39.655Z,39.10
2017-06-20T16:32:05.979Z,39.10
2017-06-20T16:34:33.232Z,40.30
2017-06-20T16:36:59.561Z,40.30
2017-06-20T16:39:25.893Z,40.40
2017-06-20T16:41:52.199Z,40.20
2017-06-20T16:44:19.286Z,37.00
2017-06-20T16:46:45.603Z,36.90
2017-06-20T16:49:11.976Z,36.70
2017-06-20T16:51:38.289Z,37.80
2017-06-20T16:54:04.609Z,38.20
2017-06-20T16:56:30.946Z,39.30
2017-06-20T16:58:57.271Z,39.70
2017-06-20T17:01:23.603Z,39.20
2017-06-20T17:03:49.919Z,39.40
2017-06-20T17:06:16.247Z,39.70
2017-06-20T17:08:42.573Z,39.90
2017-06-20T17:11:08.911Z,39.70
2017-06-20T17:13:35.233Z,40.40
2017-06-20T17:16:01.588Z,40.70
2017-06-20T17:18:28.022Z,40.90
2017-06-20T17:20:54.361Z,40.10
2017-06-20T17:23:20.700Z,40.50
2017-06-20T17:25:47.011Z,41.60
2017-06-20T17:28:13.367Z,42.20
2017-06-20T17:30:39.678Z,42.40
2017-06-20T17:33:06.029Z,42.80
2017-06-20T17:35:32.350Z,42.20
2017-06-20T17:37:58.698Z,41.90
2017-06-20T17:40:25.248Z,41.90
2017-06-20T17:42:51.571Z,42.20
2017-06-20T17:45:17.911Z,42.30
2017-06-20T17:47:44.981Z,42.40
2017-06-20T17:50:11.329Z,42.30
2017-06-20T17:52:37.656Z,42.50
2017-06-20T17:55:04.001Z,42.70
2017-06-20T17:57:30.308Z,42.40
2017-06-20T17:59:56.666Z,42.50
2017-06-20T18:02:22.986Z,42.80
2017-06-20T18:04:49.300Z,43.20
2017-06-20T18:07:15.631Z,43.20
2017-06-20T18:09:41.964Z,43.40
2017-06-20T18:12:08.308Z,43.40
2017-06-20T18:14:34.642Z,43.60
2017-06-20T18:17:01.808Z,43.60
2017-06-20T18:19:28.652Z,43.70
2017-06-20T18:21:55.004Z,44.10
2017-06-20T18:24:21.325Z,44.20
2017-06-20T18:26:47.675Z,44.30
2017-06-20T18:29:13.985Z,44.40
2017-06-20T18:31:40.320Z,44.90
2017-06-20T18:34:06.728Z,44.90
2017-06-20T18:36:33.031Z,45.10
2017-06-20T18:38:59.356Z,45.30
2017-06-20T18:41:25.660Z,45.20
2017-06-20T18:46:36.291Z,45.70
2017-06-20T18:49:02.663Z,45.80
2017-06-20T18:51:28.963Z,46.20
2017-06-20T18:53:55.291Z,46.30
2017-06-20T18:56:21.599Z,46.20
2017-06-20T18:58:47.952Z,45.90
2017-06-20T19:01:14.260Z,46.30
2017-06-20T19:03:40.585Z,46.50
2017-06-20T19:06:06.971Z,46.70
2017-06-20T19:08:33.280Z,47.00
2017-06-20T19:10:59.606Z,47.80
2017-06-20T19:13:25.916Z,48.80
2017-06-20T19:15:52.251Z,49.50
2017-06-20T19:18:18.766Z,49.90
2017-06-20T19:20:45.886Z,50.50
2017-06-20T19:23:12.244Z,50.50
2017-06-20T19:25:39.339Z,51.10
2017-06-20T19:28:05.670Z,51.10
2017-06-20T19:30:32.065Z,51.30
2017-06-20T19:32:58.381Z,51.20
2017-06-20T19:35:25.444Z,51.80
2017-06-20T19:37:51.787Z,51.80
2017-06-20T19:40:18.108Z,51.80
2017-06-20T19:42:44.448Z,51.90
2017-06-20T19:45:10.778Z,52.00
2017-06-20T19:47:37.557Z,52.20
2017-06-20T19:50:04.292Z,52.10
2017-06-20T19:52:31.139Z,52.00
2017-06-20T19:54:57.875Z,51.90
2017-06-20T19:57:24.473Z,51.60
2017-06-20T19:59:50.980Z,52.20
2017-06-20T20:02:18.092Z,53.90
2017-06-20T20:04:44.408Z,53.40
2017-06-20T20:07:10.760Z,53.50
2017-06-20T20:09:37.096Z,53.60
2017-06-20T20:12:03.413Z,54.10
2017-06-20T20:14:29.743Z,53.80
2017-06-20T20:16:56.067Z,54.10
2017-06-20T20:19:22.434Z,53.80
2017-06-20T20:21:48.820Z,53.80
2017-06-20T20:24:15.468Z,53.40
2017-06-20T20:26:41.784Z,53.90
2017-06-20T20:29:08.211Z,54.40
2017-06-20T20:31:34.521Z,54.60
2017-06-20T20:34:00.829Z,54.60
2017-06-20T20:36:27.992Z,54.30
2017-06-20T20:38:54.308Z,54.30
2017-06-20T20:41:21.378Z,55.10
2017-06-20T20:43:47.688Z,55.10
2017-06-20T20:46:14.768Z,54.90
2017-06-20T20:51:14.271Z,54.90
2017-06-20T20:53:40.583Z,54.90
2017-06-20T20:56:07.687Z,55.30
2017-06-20T20:58:34.007Z,55.20
2017-06-20T21:01:00.329Z,55.10
2017-06-20T21:03:26.645Z,55.10
2017-06-20T21:05:52.957Z,55.10
2017-06-20T21:08:19.314Z,55.40
2017-06-20T21:10:45.628Z,55.40
2017-06-20T21:13:11.966Z,55.30
2017-06-20T21:15:39.450Z,55.60
2017-06-20T21:18:05.956Z,56.00
2017-06-20T21:20:32.439Z,56.10
2017-06-20T21:22:59.149Z,56.20
2017-06-20T21:25:25.688Z,56.50
2017-06-20T21:27:52.166Z,56.50
2017-06-20T21:30:19.351Z,56.60
2017-06-20T21:32:46.523Z,56.60
2017-06-20T21:35:12.891Z,56.70
2017-06-20T21:37:39.215Z,56.80
2017-06-20T21:40:05.599Z,57.00
2017-06-20T21:42:31.916Z,57.20
2017-06-20T21:44:58.252Z,57.30
2017-06-20T21:47:24.570Z,57.40
2017-06-20T21:49:51.712Z,57.40
2017-06-20T21:52:19.115Z,57.40
2017-06-20T21:54:45.577Z,57.40
2017-06-20T21:57:11.919Z,57.40
2017-06-20T21:59:38.239Z,57.30
2017-06-20T22:02:04.601Z,57.60
2017-06-20T22:04:31.659Z,57.50
2017-06-20T22:06:58.147Z,57.50
2017-06-20T22:09:24.473Z,57.50
2017-06-20T22:11:50.795Z,57.60
2017-06-20T22:14:17.135Z,57.70
2017-06-20T22:16:43.463Z,57.60
2017-06-20T22:19:09.872Z,57.50
2017-06-20T22:21:36.190Z,57.50
2017-06-20T22:24:02.596Z,57.70
2017-06-20T22:26:29.654Z,58.20
2017-06-20T22:28:56.033Z,58.20
2017-06-20T22:31:22.355Z,58.40
2017-06-20T22:33:48.782Z,58.40
2017-06-20T22:36:15.115Z,58.20
2017-06-20T22:38:41.423Z,58.30
2017-06-20T22:41:07.767Z,58.40
2017-06-20T22:43:34.090Z,58.50
2017-06-20T22:46:00.436Z,58.50
2017-06-20T22:48:26.764Z,58.60
2017-06-20T22:50:53.100Z,58.70
2017-06-20T22:53:19.416Z,58.90
2017-06-20T22:55:45.751Z,58.90
2017-06-20T22:58:12.060Z,58.80
2017-06-20T23:00:38.396Z,58.80
2017-06-20T23:03:04.707Z,58.70
2017-06-20T23:05:31.045Z,58.90
2017-06-20T23:07:57.393Z,58.80
2017-06-20T23:10:23.727Z,58.80
2017-06-20T23:12:50.076Z,59.20
2017-06-20T23:15:16.392Z,59.20
2017-06-20T23:17:42.727Z,59.40
2017-06-20T23:20:09.063Z,59.50
2017-06-20T23:22:35.397Z,59.60
2017-06-20T23:25:01.711Z,60.40
2017-06-20T23:27:28.047Z,59.70
2017-06-20T23:29:54.351Z,59.70
2017-06-20T23:34:54.048Z,59.80
2017-06-20T23:37:21.095Z,60.00
2017-06-20T23:39:48.181Z,60.20
2017-06-20T23:42:14.554Z,60.20
2017-06-20T23:44:41.056Z,60.30
2017-06-20T23:47:07.378Z,60.50
2017-06-20T23:49:33.713Z,60.50
2017-06-20T23:52:00.048Z,60.60
2017-06-20T23:54:26.394Z,60.50
2017-06-20T23:56:52.748Z,60.70
2017-06-20T23:59:19.104Z,60.70
